Tatiana 1 — 9HA2824 — position and weather

sailwx.info

Track history (hours):
 
Tides and Currents Weather Stations Pressure Air Temp Water Temp Dewpoint Dewpoint Depression Visibility Wind Speed Wind Dir Waves Ship Positions

Tatiana 1

Last reported at 2017-May-25 10:45 UTC. Time now 2017-May-26 03:24 UTC.
Position N 40°30' E 013°27'.

Length 47 m; draft 2.5 m.

Type: Ship. MMSI: 256188000.

Date/timePositionNaut miles runAvg speedWind from/ knotsBaromVisibWave heightAir tempDewpointWater temp
2017-May-25 10:45N 40°30' E 013°27'4 9.6
2017-May-25 10:17N 40°28' E 013°32'3 9.7
2017-May-25 10:00N 40°26' E 013°36'5 9.8
2017-May-25 09:30N 40°24' E 013°41'5 9.8
2017-May-25 09:00N 40°21' E 013°47'5 9.7
2017-May-25 08:30N 40°19' E 013°52'90 9.6
2017-May-24 23:07N 39°15' E 015°14'510.3
2017-May-24 22:38N 39°10' E 015°17'410.4
2017-May-24 22:13N 39°06' E 015°19'210.3
2017-May-24 22:00N 39°04' E 015°20'510.2
2017-May-24 21:30N 38°59' E 015°22'510.1
2017-May-24 20:59N 38°55' E 015°24'510.2
2017-May-24 20:30N 38°50' E 015°27'510.4
2017-May-24 20:00N 38°45' E 015°30'510.6
2017-May-24 19:30N 38°40' E 015°32'510.4
2017-May-24 19:00N 38°35' E 015°34'510.3
2017-May-24 18:30N 38°31' E 015°37'510.1
2017-May-24 18:00N 38°26' E 015°39'5 9.6
2017-May-24 17:30N 38°21' E 015°41'5 9.4
2017-May-24 17:00N 38°17' E 015°42'511.0
2017-May-24 16:30N 38°13' E 015°37'5 9.8
2017-May-24 16:00N 38°08' E 015°37'5 9.4
2017-May-24 15:30N 38°03' E 015°36'510.1
2017-May-24 15:00N 37°58' E 015°36'510.3
2017-May-24 14:30N 37°53' E 015°37'9 9.0
2017-May-24 13:30N 37°51' E 015°48'510.0
2017-May-24 13:00N 37°51' E 015°54'  
2017-May-20 20:36N 36°52' E 023°32'1 9.4
2017-May-20 20:30N 36°53' E 023°33'5 9.4
2017-May-20 20:00N 36°57' E 023°36'5 9.6
2017-May-20 19:30N 37°01' E 023°39'5 9.6
2017-May-20 19:00N 37°06' E 023°41'5 9.7
2017-May-20 18:30N 37°10' E 023°44'5 9.6
2017-May-20 18:01N 37°14' E 023°47'5 9.7
2017-May-20 17:30N 37°18' E 023°50'5 9.7
2017-May-20 17:01N 37°22' E 023°54'5 9.9
2017-May-20 16:28N 37°27' E 023°57'  
Track history (hours):
 
Tides and Currents Weather Stations Pressure Air Temp Water Temp Dewpoint Dewpoint Depression Visibility Wind Speed Wind Dir Waves Ship Positions

Tatiana 1

Last reported at 2017-May-25 10:45 UTC. Time now 2017-May-26 03:24 UTC.
Position N 40°30' E 013°27'.

Length 47 m; draft 2.5 m.

Type: Ship. MMSI: 256188000.

Date/timePositionNaut miles runAvg speedWind from/ knotsBaromVisibWave heightAir tempDewpointWater temp
2017-May-25 10:45N 40°30' E 013°27'4 9.6
2017-May-25 10:17N 40°28' E 013°32'3 9.7
2017-May-25 10:00N 40°26' E 013°36'5 9.8
2017-May-25 09:30N 40°24' E 013°41'5 9.8
2017-May-25 09:00N 40°21' E 013°47'5 9.7
2017-May-25 08:30N 40°19' E 013°52'90 9.6
2017-May-24 23:07N 39°15' E 015°14'510.3
2017-May-24 22:38N 39°10' E 015°17'410.4
2017-May-24 22:13N 39°06' E 015°19'210.3
2017-May-24 22:00N 39°04' E 015°20'510.2
2017-May-24 21:30N 38°59' E 015°22'510.1
2017-May-24 20:59N 38°55' E 015°24'510.2
2017-May-24 20:30N 38°50' E 015°27'510.4
2017-May-24 20:00N 38°45' E 015°30'510.6
2017-May-24 19:30N 38°40' E 015°32'510.4
2017-May-24 19:00N 38°35' E 015°34'510.3
2017-May-24 18:30N 38°31' E 015°37'510.1
2017-May-24 18:00N 38°26' E 015°39'5 9.6
2017-May-24 17:30N 38°21' E 015°41'5 9.4
2017-May-24 17:00N 38°17' E 015°42'511.0
2017-May-24 16:30N 38°13' E 015°37'5 9.8
2017-May-24 16:00N 38°08' E 015°37'5 9.4
2017-May-24 15:30N 38°03' E 015°36'510.1
2017-May-24 15:00N 37°58' E 015°36'510.3
2017-May-24 14:30N 37°53' E 015°37'9 9.0
2017-May-24 13:30N 37°51' E 015°48'510.0
2017-May-24 13:00N 37°51' E 015°54'  
2017-May-20 20:36N 36°52' E 023°32'1 9.4
2017-May-20 20:30N 36°53' E 023°33'5 9.4
2017-May-20 20:00N 36°57' E 023°36'5 9.6
2017-May-20 19:30N 37°01' E 023°39'5 9.6
2017-May-20 19:00N 37°06' E 023°41'5 9.7
2017-May-20 18:30N 37°10' E 023°44'5 9.6
2017-May-20 18:01N 37°14' E 023°47'5 9.7
2017-May-20 17:30N 37°18' E 023°50'5 9.7
2017-May-20 17:01N 37°22' E 023°54'5 9.9
2017-May-20 16:28N 37°27' E 023°57'  

Dump ship's entire track history